sensor_id;sensor_type;location;lat;lon;timestamp;pressure;altitude;pressure_sealevel;temperature;humidity
68628;BME280;55611;48.602;9.490;2023-04-04T00:01:18;97640;;;4.4;56
68628;BME280;55611;48.602;9.490;2023-04-04T00:03:49;97630;;;4.4;56
68628;BME280;55611;48.602;9.490;2023-04-04T00:06:20;97630;;;4.4;56
68628;BME280;55611;48.602;9.490;2023-04-04T00:08:50;97630;;;4.4;56
68628;BME280;55611;48.602;9.490;2023-04-04T00:11:21;97630;;;4.3;56
68628;BME280;55611;48.602;9.490;2023-04-04T00:16:22;97620;;;4.3;56
68628;BME280;55611;48.602;9.490;2023-04-04T00:18:52;97620;;;4.2;56
68628;BME280;55611;48.602;9.490;2023-04-04T00:21:23;97610;;;4.3;55.5
68628;BME280;55611;48.602;9.490;2023-04-04T00:23:53;97610;;;4.2;55.5
68628;BME280;55611;48.602;9.490;2023-04-04T00:26:24;97620;;;4.2;55.5
68628;BME280;55611;48.602;9.490;2023-04-04T00:28:54;97610;;;4.2;55.5
68628;BME280;55611;48.602;9.490;2023-04-04T00:31:25;97610;;;4.2;55.5
68628;BME280;55611;48.602;9.490;2023-04-04T00:33:55;97620;;;4.1;55.5
68628;BME280;55611;48.602;9.490;2023-04-04T00:36:26;97610;;;4.1;55.5
68628;BME280;55611;48.602;9.490;2023-04-04T00:38:56;97610;;;4.1;55.5
68628;BME280;55611;48.602;9.490;2023-04-04T00:41:27;97610;;;4;55.5
68628;BME280;55611;48.602;9.490;2023-04-04T00:43:57;97600;;;4;55.5
68628;BME280;55611;48.602;9.490;2023-04-04T00:46:28;97590;;;4;56
68628;BME280;55611;48.602;9.490;2023-04-04T00:48:58;97600;;;4;56
68628;BME280;55611;48.602;9.490;2023-04-04T00:51:29;97590;;;4;56
68628;BME280;55611;48.602;9.490;2023-04-04T00:53:59;97590;;;4;56
68628;BME280;55611;48.602;9.490;2023-04-04T00:56:30;97590;;;4;56
68628;BME280;55611;48.602;9.490;2023-04-04T00:59:00;97590;;;4;56
68628;BME280;55611;48.602;9.490;2023-04-04T01:01:31;97580;;;3.9;55.5
68628;BME280;55611;48.602;9.490;2023-04-04T01:04:01;97580;;;3.9;56
68628;BME280;55611;48.602;9.490;2023-04-04T01:06:32;97590;;;3.9;56
68628;BME280;55611;48.602;9.490;2023-04-04T01:09:02;97590;;;3.9;56
68628;BME280;55611;48.602;9.490;2023-04-04T01:11:33;97590;;;3.9;56
68628;BME280;55611;48.602;9.490;2023-04-04T01:14:03;97590;;;3.9;56
68628;BME280;55611;48.602;9.490;2023-04-04T01:16:34;97580;;;3.9;56
68628;BME280;55611;48.602;9.490;2023-04-04T01:19:05;97580;;;3.9;56
68628;BME280;55611;48.602;9.490;2023-04-04T01:21:35;97580;;;3.9;56
68628;BME280;55611;48.602;9.490;2023-04-04T01:24:06;97580;;;3.8;56
68628;BME280;55611;48.602;9.490;2023-04-04T01:26:36;97580;;;3.8;56
68628;BME280;55611;48.602;9.490;2023-04-04T01:29:07;97570;;;3.8;56
68628;BME280;55611;48.602;9.490;2023-04-04T01:31:39;97570;;;3.8;56
68628;BME280;55611;48.602;9.490;2023-04-04T01:34:14;97570;;;3.7;56
68628;BME280;55611;48.602;9.490;2023-04-04T01:39:14;97570;;;3.7;56
68628;BME280;55611;48.602;9.490;2023-04-04T01:41:39;97560;;;3.7;56
68628;BME280;55611;48.602;9.490;2023-04-04T01:44:10;97560;;;3.7;56
68628;BME280;55611;48.602;9.490;2023-04-04T01:46:40;97560;;;3.7;56
68628;BME280;55611;48.602;9.490;2023-04-04T01:49:11;97560;;;3.7;56
68628;BME280;55611;48.602;9.490;2023-04-04T01:51:41;97560;;;3.7;56
68628;BME280;55611;48.602;9.490;2023-04-04T01:54:12;97570;;;3.7;56
68628;BME280;55611;48.602;9.490;2023-04-04T01:56:42;97560;;;3.7;56
68628;BME280;55611;48.602;9.490;2023-04-04T01:59:13;97570;;;3.6;56
68628;BME280;55611;48.602;9.490;2023-04-04T02:01:43;97570;;;3.6;56
68628;BME280;55611;48.602;9.490;2023-04-04T02:04:14;97570;;;3.6;56
68628;BME280;55611;48.602;9.490;2023-04-04T02:06:44;97570;;;3.6;56
68628;BME280;55611;48.602;9.490;2023-04-04T02:09:15;97580;;;3.5;56
68628;BME280;55611;48.602;9.490;2023-04-04T02:11:45;97580;;;3.5;56
68628;BME280;55611;48.602;9.490;2023-04-04T02:14:16;97580;;;3.5;56
68628;BME280;55611;48.602;9.490;2023-04-04T02:16:46;97580;;;3.5;56
68628;BME280;55611;48.602;9.490;2023-04-04T02:19:17;97580;;;3.5;56
68628;BME280;55611;48.602;9.490;2023-04-04T02:21:47;97580;;;3.5;56
68628;BME280;55611;48.602;9.490;2023-04-04T02:24:18;97580;;;3.5;56
68628;BME280;55611;48.602;9.490;2023-04-04T02:26:48;97570;;;3.5;56
68628;BME280;55611;48.602;9.490;2023-04-04T02:29:19;97570;;;3.5;56
68628;BME280;55611;48.602;9.490;2023-04-04T02:31:49;97570;;;3.5;56
68628;BME280;55611;48.602;9.490;2023-04-04T02:34:20;97560;;;3.6;56
68628;BME280;55611;48.602;9.490;2023-04-04T02:36:50;97570;;;3.5;56
68628;BME280;55611;48.602;9.490;2023-04-04T02:39:21;97570;;;3.5;56
68628;BME280;55611;48.602;9.490;2023-04-04T02:41:51;97570;;;3.5;56
68628;BME280;55611;48.602;9.490;2023-04-04T02:44:22;97570;;;3.4;56
68628;BME280;55611;48.602;9.490;2023-04-04T02:46:53;97570;;;3.4;56
68628;BME280;55611;48.602;9.490;2023-04-04T02:49:23;97560;;;3.5;56
68628;BME280;55611;48.602;9.490;2023-04-04T02:51:54;97560;;;3.4;56
68628;BME280;55611;48.602;9.490;2023-04-04T02:54:24;97570;;;3.4;56.5
68628;BME280;55611;48.602;9.490;2023-04-04T02:56:55;97560;;;3.4;56.5
68628;BME280;55611;48.602;9.490;2023-04-04T02:59:25;97560;;;3.3;56
68628;BME280;55611;48.602;9.490;2023-04-04T03:01:56;97560;;;3.3;56
68628;BME280;55611;48.602;9.490;2023-04-04T03:04:26;97570;;;3.2;56
68628;BME280;55611;48.602;9.490;2023-04-04T03:06:57;97560;;;3.3;56
68628;BME280;55611;48.602;9.490;2023-04-04T03:09:27;97560;;;3.2;56
68628;BME280;55611;48.602;9.490;2023-04-04T03:11:58;97560;;;3.2;55.5
68628;BME280;55611;48.602;9.490;2023-04-04T03:14:28;97560;;;3.1;55.5
68628;BME280;55611;48.602;9.490;2023-04-04T03:16:59;97560;;;3;55.5
68628;BME280;55611;48.602;9.490;2023-04-04T03:19:29;97560;;;3;55.5
68628;BME280;55611;48.602;9.490;2023-04-04T03:22:00;97560;;;2.9;55.5
68628;BME280;55611;48.602;9.490;2023-04-04T03:24:30;97560;;;2.8;55.5
68628;BME280;55611;48.602;9.490;2023-04-04T03:27:01;97570;;;2.8;55.5
68628;BME280;55611;48.602;9.490;2023-04-04T03:29:31;97560;;;2.8;55.5
68628;BME280;55611;48.602;9.490;2023-04-04T03:32:02;97570;;;2.7;55.5
68628;BME280;55611;48.602;9.490;2023-04-04T03:34:32;97560;;;2.7;55.5
68628;BME280;55611;48.602;9.490;2023-04-04T03:37:03;97560;;;2.7;55.5
68628;BME280;55611;48.602;9.490;2023-04-04T03:39:33;97560;;;2.7;55.5
68628;BME280;55611;48.602;9.490;2023-04-04T03:42:04;97560;;;2.6;55.5
68628;BME280;55611;48.602;9.490;2023-04-04T03:44:34;97560;;;2.6;55.5
68628;BME280;55611;48.602;9.490;2023-04-04T03:47:05;97560;;;2.6;55.5
68628;BME280;55611;48.602;9.490;2023-04-04T03:49:35;97560;;;2.7;55.5
68628;BME280;55611;48.602;9.490;2023-04-04T03:52:06;97560;;;2.7;55.5
68628;BME280;55611;48.602;9.490;2023-04-04T03:54:39;97560;;;2.7;55.5
68628;BME280;55611;48.602;9.490;2023-04-04T03:57:07;97550;;;2.7;55.5
68628;BME280;55611;48.602;9.490;2023-04-04T03:59:38;97560;;;2.6;56
68628;BME280;55611;48.602;9.490;2023-04-04T04:02:08;97560;;;2.6;56
68628;BME280;55611;48.602;9.490;2023-04-04T04:04:38;97560;;;2.6;56
68628;BME280;55611;48.602;9.490;2023-04-04T04:07:09;97560;;;2.6;56
68628;BME280;55611;48.602;9.490;2023-04-04T04:09:40;97560;;;2.5;56
68628;BME280;55611;48.602;9.490;2023-04-04T04:12:10;97560;;;2.5;56
68628;BME280;55611;48.602;9.490;2023-04-04T04:14:40;97560;;;2.5;56
68628;BME280;55611;48.602;9.490;2023-04-04T04:17:11;97560;;;2.5;56
68628;BME280;55611;48.602;9.490;2023-04-04T04:19:42;97560;;;2.5;56
68628;BME280;55611;48.602;9.490;2023-04-04T04:22:12;97560;;;2.5;56
68628;BME280;55611;48.602;9.490;2023-04-04T04:24:43;97560;;;2.4;56
68628;BME280;55611;48.602;9.490;2023-04-04T04:27:13;97570;;;2.4;56
68628;BME280;55611;48.602;9.490;2023-04-04T04:29:44;97560;;;2.3;56
68628;BME280;55611;48.602;9.490;2023-04-04T04:32:16;97570;;;2.4;56
68628;BME280;55611;48.602;9.490;2023-04-04T04:34:45;97560;;;2.3;56
68628;BME280;55611;48.602;9.490;2023-04-04T04:37:15;97560;;;2.2;56
68628;BME280;55611;48.602;9.490;2023-04-04T04:39:46;97560;;;2.2;56
68628;BME280;55611;48.602;9.490;2023-04-04T04:42:16;97560;;;2.1;56
68628;BME280;55611;48.602;9.490;2023-04-04T04:44:47;97560;;;2.1;56
68628;BME280;55611;48.602;9.490;2023-04-04T04:47:17;97570;;;2;56
68628;BME280;55611;48.602;9.490;2023-04-04T04:49:48;97570;;;2.1;56
68628;BME280;55611;48.602;9.490;2023-04-04T04:52:18;97570;;;2.1;56
68628;BME280;55611;48.602;9.490;2023-04-04T04:54:49;97570;;;2.1;56
68628;BME280;55611;48.602;9.490;2023-04-04T04:57:19;97570;;;2.1;56
68628;BME280;55611;48.602;9.490;2023-04-04T04:59:50;97580;;;2.2;56
68628;BME280;55611;48.602;9.490;2023-04-04T05:02:20;97570;;;2.2;56
68628;BME280;55611;48.602;9.490;2023-04-04T05:04:51;97570;;;2.2;56
68628;BME280;55611;48.602;9.490;2023-04-04T05:07:21;97580;;;2.2;56
68628;BME280;55611;48.602;9.490;2023-04-04T05:09:52;97580;;;2.1;56
68628;BME280;55611;48.602;9.490;2023-04-04T05:12:22;97580;;;2.1;56
68628;BME280;55611;48.602;9.490;2023-04-04T05:14:53;97580;;;2.2;56
68628;BME280;55611;48.602;9.490;2023-04-04T05:17:23;97580;;;2.2;56
68628;BME280;55611;48.602;9.490;2023-04-04T05:19:54;97580;;;2.3;56
68628;BME280;55611;48.602;9.490;2023-04-04T05:22:24;97580;;;2.4;56
68628;BME280;55611;48.602;9.490;2023-04-04T05:24:55;97580;;;2.5;56
68628;BME280;55611;48.602;9.490;2023-04-04T05:27:26;97580;;;2.5;56
68628;BME280;55611;48.602;9.490;2023-04-04T05:29:56;97580;;;2.5;56
68628;BME280;55611;48.602;9.490;2023-04-04T05:32:27;97580;;;2.5;56
68628;BME280;55611;48.602;9.490;2023-04-04T05:34:57;97590;;;2.6;56
68628;BME280;55611;48.602;9.490;2023-04-04T05:37:27;97590;;;2.6;56
68628;BME280;55611;48.602;9.490;2023-04-04T05:39:58;97590;;;2.8;56
68628;BME280;55611;48.602;9.490;2023-04-04T05:42:29;97590;;;2.8;56.5
68628;BME280;55611;48.602;9.490;2023-04-04T05:44:59;97590;;;2.9;56.5
68628;BME280;55611;48.602;9.490;2023-04-04T05:47:30;97590;;;2.9;56.5
68628;BME280;55611;48.602;9.490;2023-04-04T05:50:00;97590;;;3;56.5
68628;BME280;55611;48.602;9.490;2023-04-04T05:52:31;97590;;;3;56.5
68628;BME280;55611;48.602;9.490;2023-04-04T05:55:01;97580;;;3.1;56.5
68628;BME280;55611;48.602;9.490;2023-04-04T05:57:32;97580;;;3.2;56.5
68628;BME280;55611;48.602;9.490;2023-04-04T06:02:33;97590;;;3.3;57
68628;BME280;55611;48.602;9.490;2023-04-04T06:05:03;97580;;;3.4;57
68628;BME280;55611;48.602;9.490;2023-04-04T06:07:34;97580;;;3.4;57
68628;BME280;55611;48.602;9.490;2023-04-04T06:10:04;97580;;;3.5;57
68628;BME280;55611;48.602;9.490;2023-04-04T06:12:35;97580;;;3.6;57
68628;BME280;55611;48.602;9.490;2023-04-04T06:15:05;97590;;;3.6;57
68628;BME280;55611;48.602;9.490;2023-04-04T06:17:36;97590;;;3.7;57
68628;BME280;55611;48.602;9.490;2023-04-04T06:20:06;97590;;;3.7;57
68628;BME280;55611;48.602;9.490;2023-04-04T06:22:37;97580;;;3.8;57
68628;BME280;55611;48.602;9.490;2023-04-04T06:25:07;97580;;;3.9;57
68628;BME280;55611;48.602;9.490;2023-04-04T06:27:38;97590;;;3.9;57
68628;BME280;55611;48.602;9.490;2023-04-04T06:30:09;97590;;;3.9;57
68628;BME280;55611;48.602;9.490;2023-04-04T06:32:39;97580;;;4;57
68628;BME280;55611;48.602;9.490;2023-04-04T06:35:09;97580;;;4.1;57
68628;BME280;55611;48.602;9.490;2023-04-04T06:37:40;97580;;;4.1;57
68628;BME280;55611;48.602;9.490;2023-04-04T06:40:10;97580;;;4.1;57.5
68628;BME280;55611;48.602;9.490;2023-04-04T06:42:46;97580;;;4.3;57.5
68628;BME280;55611;48.602;9.490;2023-04-04T06:45:11;97580;;;4.3;57.5
68628;BME280;55611;48.602;9.490;2023-04-04T06:47:42;97570;;;4.3;57.5
68628;BME280;55611;48.602;9.490;2023-04-04T06:50:12;97570;;;4.4;57.5
68628;BME280;55611;48.602;9.490;2023-04-04T06:52:43;97570;;;4.5;57.5
68628;BME280;55611;48.602;9.490;2023-04-04T06:55:14;97570;;;4.6;57.5
68628;BME280;55611;48.602;9.490;2023-04-04T06:57:44;97570;;;4.7;57.5
68628;BME280;55611;48.602;9.490;2023-04-04T07:00:15;97570;;;4.8;57.5
68628;BME280;55611;48.602;9.490;2023-04-04T07:02:45;97570;;;4.8;57.5
68628;BME280;55611;48.602;9.490;2023-04-04T07:05:16;97570;;;4.8;57.5
68628;BME280;55611;48.602;9.490;2023-04-04T07:07:46;97570;;;4.9;57.5
68628;BME280;55611;48.602;9.490;2023-04-04T07:10:17;97570;;;4.9;57.5
68628;BME280;55611;48.602;9.490;2023-04-04T07:12:47;97570;;;5;57.5
68628;BME280;55611;48.602;9.490;2023-04-04T07:15:18;97570;;;5;57.5
68628;BME280;55611;48.602;9.490;2023-04-04T07:17:48;97570;;;5.1;57.5
68628;BME280;55611;48.602;9.490;2023-04-04T07:20:19;97570;;;5.1;57.5
68628;BME280;55611;48.602;9.490;2023-04-04T07:22:49;97570;;;5.3;57.5
68628;BME280;55611;48.602;9.490;2023-04-04T07:25:20;97570;;;5.3;57.5
68628;BME280;55611;48.602;9.490;2023-04-04T07:27:51;97570;;;5.4;57.5
68628;BME280;55611;48.602;9.490;2023-04-04T07:30:21;97580;;;5.5;57.5
68628;BME280;55611;48.602;9.490;2023-04-04T07:32:58;97580;;;5.5;57.5
68628;BME280;55611;48.602;9.490;2023-04-04T07:35:22;97580;;;5.6;57.5
68628;BME280;55611;48.602;9.490;2023-04-04T07:37:52;97580;;;5.7;57.5
68628;BME280;55611;48.602;9.490;2023-04-04T07:40:23;97570;;;5.7;57.5
68628;BME280;55611;48.602;9.490;2023-04-04T07:42:53;97570;;;5.7;57.5
68628;BME280;55611;48.602;9.490;2023-04-04T07:45:24;97570;;;5.8;57.5
68628;BME280;55611;48.602;9.490;2023-04-04T07:47:54;97570;;;5.8;57.5
68628;BME280;55611;48.602;9.490;2023-04-04T07:50:25;97570;;;5.8;57.5
68628;BME280;55611;48.602;9.490;2023-04-04T07:52:55;97580;;;5.8;57.5
68628;BME280;55611;48.602;9.490;2023-04-04T07:55:26;97570;;;5.9;57.5
68628;BME280;55611;48.602;9.490;2023-04-04T07:57:56;97570;;;5.9;57.5
68628;BME280;55611;48.602;9.490;2023-04-04T08:00:27;97580;;;5.9;57.5
68628;BME280;55611;48.602;9.490;2023-04-04T08:02:57;97570;;;6;57.5
68628;BME280;55611;48.602;9.490;2023-04-04T08:05:28;97570;;;6;57.5
68628;BME280;55611;48.602;9.490;2023-04-04T08:07:58;97580;;;6.1;57.5
68628;BME280;55611;48.602;9.490;2023-04-04T08:10:29;97570;;;6.2;57.5
68628;BME280;55611;48.602;9.490;2023-04-04T08:12:59;97570;;;6.3;57.5
68628;BME280;55611;48.602;9.490;2023-04-04T08:15:30;97570;;;6.3;57.5
68628;BME280;55611;48.602;9.490;2023-04-04T08:18:00;97570;;;6.4;57.5
68628;BME280;55611;48.602;9.490;2023-04-04T08:20:31;97570;;;6.5;57.5
68628;BME280;55611;48.602;9.490;2023-04-04T08:23:01;97570;;;6.3;57.5
68628;BME280;55611;48.602;9.490;2023-04-04T08:25:32;97570;;;6.3;57.5
68628;BME280;55611;48.602;9.490;2023-04-04T08:28:02;97570;;;6.3;57.5
68628;BME280;55611;48.602;9.490;2023-04-04T08:30:33;97580;;;6.4;57.5
68628;BME280;55611;48.602;9.490;2023-04-04T08:33:04;97570;;;6.5;57.5
68628;BME280;55611;48.602;9.490;2023-04-04T08:35:34;97570;;;6.7;57.5
68628;BME280;55611;48.602;9.490;2023-04-04T08:38:05;97570;;;6.9;57.5
68628;BME280;55611;48.602;9.490;2023-04-04T08:40:35;97570;;;7;57.5
68628;BME280;55611;48.602;9.490;2023-04-04T08:43:06;97570;;;6.9;58
68628;BME280;55611;48.602;9.490;2023-04-04T08:45:36;97570;;;7;58
68628;BME280;55611;48.602;9.490;2023-04-04T08:48:07;97570;;;7.1;57.5
68628;BME280;55611;48.602;9.490;2023-04-04T08:53:08;97560;;;7.7;58
68628;BME280;55611;48.602;9.490;2023-04-04T08:55:38;97560;;;7.7;58
68628;BME280;55611;48.602;9.490;2023-04-04T08:58:09;97560;;;7.8;58
68628;BME280;55611;48.602;9.490;2023-04-04T09:00:39;97560;;;8;58
68628;BME280;55611;48.602;9.490;2023-04-04T09:03:13;97560;;;8;58
68628;BME280;55611;48.602;9.490;2023-04-04T09:05:40;97570;;;7.8;58
68628;BME280;55611;48.602;9.490;2023-04-04T09:08:11;97570;;;7.9;57.5
68628;BME280;55611;48.602;9.490;2023-04-04T09:10:41;97570;;;7.9;57.5
68628;BME280;55611;48.602;9.490;2023-04-04T09:13:12;97570;;;7.9;57.5
68628;BME280;55611;48.602;9.490;2023-04-04T09:15:46;97570;;;8.2;57.5
68628;BME280;55611;48.602;9.490;2023-04-04T09:18:13;97570;;;8.4;57.5
68628;BME280;55611;48.602;9.490;2023-04-04T09:20:44;97570;;;8.4;57.5
68628;BME280;55611;48.602;9.490;2023-04-04T09:23:15;97580;;;8.5;57.5
68628;BME280;55611;48.602;9.490;2023-04-04T09:25:45;97570;;;8.5;57.5
68628;BME280;55611;48.602;9.490;2023-04-04T09:28:15;97570;;;8.4;57.5
68628;BME280;55611;48.602;9.490;2023-04-04T09:30:47;97570;;;8.3;57.5
68628;BME280;55611;48.602;9.490;2023-04-04T09:33:17;97570;;;8.4;57.5
68628;BME280;55611;48.602;9.490;2023-04-04T09:35:48;97570;;;8.5;57.5
68628;BME280;55611;48.602;9.490;2023-04-04T09:38:17;97570;;;8.5;57.5
68628;BME280;55611;48.602;9.490;2023-04-04T09:40:47;97570;;;8.4;57.5
68628;BME280;55611;48.602;9.490;2023-04-04T09:43:18;97580;;;8.4;57.5
68628;BME280;55611;48.602;9.490;2023-04-04T09:45:49;97580;;;8.4;57.5
68628;BME280;55611;48.602;9.490;2023-04-04T09:48:27;97570;;;8.4;57.5
68628;BME280;55611;48.602;9.490;2023-04-04T09:50:50;97570;;;8.3;57
68628;BME280;55611;48.602;9.490;2023-04-04T09:53:20;97570;;;8;57
68628;BME280;55611;48.602;9.490;2023-04-04T09:55:51;97580;;;8;57
68628;BME280;55611;48.602;9.490;2023-04-04T09:58:25;97580;;;7.9;57
68628;BME280;55611;48.602;9.490;2023-04-04T10:00:52;97580;;;7.8;57
68628;BME280;55611;48.602;9.490;2023-04-04T10:03:22;97580;;;7.8;57
68628;BME280;55611;48.602;9.490;2023-04-04T10:06:01;97580;;;8;57
68628;BME280;55611;48.602;9.490;2023-04-04T10:08:23;97580;;;8.2;57
68628;BME280;55611;48.602;9.490;2023-04-04T10:10:58;97580;;;8.3;57
68628;BME280;55611;48.602;9.490;2023-04-04T10:13:26;97570;;;8.3;57
68628;BME280;55611;48.602;9.490;2023-04-04T10:15:55;97570;;;8.3;57
68628;BME280;55611;48.602;9.490;2023-04-04T10:18:26;97560;;;8.4;57
68628;BME280;55611;48.602;9.490;2023-04-04T10:20:57;97560;;;8.4;57
68628;BME280;55611;48.602;9.490;2023-04-04T10:23:26;97560;;;8.5;57
68628;BME280;55611;48.602;9.490;2023-04-04T10:25:57;97560;;;8.6;57
68628;BME280;55611;48.602;9.490;2023-04-04T10:28:27;97560;;;8.7;57
68628;BME280;55611;48.602;9.490;2023-04-04T10:31:07;97570;;;8.8;57
68628;BME280;55611;48.602;9.490;2023-04-04T10:33:31;97560;;;8.7;57
68628;BME280;55611;48.602;9.490;2023-04-04T10:36:00;97560;;;8.7;57
68628;BME280;55611;48.602;9.490;2023-04-04T10:38:30;97560;;;8.9;57
68628;BME280;55611;48.602;9.490;2023-04-04T10:41:00;97560;;;8.9;57
68628;BME280;55611;48.602;9.490;2023-04-04T10:43:31;97560;;;8.9;57
68628;BME280;55611;48.602;9.490;2023-04-04T10:46:05;97560;;;8.9;56.5
68628;BME280;55611;48.602;9.490;2023-04-04T10:48:31;97550;;;9.1;56.5
68628;BME280;55611;48.602;9.490;2023-04-04T10:51:03;97560;;;9.2;56.5
68628;BME280;55611;48.602;9.490;2023-04-04T10:53:32;97550;;;9.1;57
68628;BME280;55611;48.602;9.490;2023-04-04T10:56:03;97550;;;9;56.5
68628;BME280;55611;48.602;9.490;2023-04-04T10:58:38;97560;;;8.8;56.5
68628;BME280;55611;48.602;9.490;2023-04-04T11:01:04;97550;;;8.7;56.5
68628;BME280;55611;48.602;9.490;2023-04-04T11:04:37;97550;;;8.7;56.5
68628;BME280;55611;48.602;9.490;2023-04-04T11:06:12;97550;;;8.6;56.5
68628;BME280;55611;48.602;9.490;2023-04-04T11:08:35;97540;;;8.6;56.5
68628;BME280;55611;48.602;9.490;2023-04-04T11:11:06;97540;;;8.7;56.5
68628;BME280;55611;48.602;9.490;2023-04-04T11:13:36;97550;;;8.6;56.5
68628;BME280;55611;48.602;9.490;2023-04-04T11:16:10;97540;;;8.7;56.5
68628;BME280;55611;48.602;9.490;2023-04-04T11:18:44;97530;;;8.7;56.5
68628;BME280;55611;48.602;9.490;2023-04-04T11:21:09;97530;;;8.6;56.5
68628;BME280;55611;48.602;9.490;2023-04-04T11:24:15;97530;;;8.4;56.5
68628;BME280;55611;48.602;9.490;2023-04-04T11:26:09;97530;;;8.4;56.5
68628;BME280;55611;48.602;9.490;2023-04-04T11:28:43;97530;;;8.5;56.5
68628;BME280;55611;48.602;9.490;2023-04-04T11:31:21;97530;;;8.6;56.5
68628;BME280;55611;48.602;9.490;2023-04-04T11:34:44;97530;;;8.7;56.5
68628;BME280;55611;48.602;9.490;2023-04-04T11:36:11;97520;;;8.7;56.5
68628;BME280;55611;48.602;9.490;2023-04-04T11:38:42;97510;;;8.6;56.5
68628;BME280;55611;48.602;9.490;2023-04-04T11:41:12;97510;;;8.9;56.5
68628;BME280;55611;48.602;9.490;2023-04-04T11:43:43;97520;;;9.1;56.5
68628;BME280;55611;48.602;9.490;2023-04-04T11:46:15;97520;;;9.2;56
68628;BME280;55611;48.602;9.490;2023-04-04T11:48:44;97530;;;9.2;56
68628;BME280;55611;48.602;9.490;2023-04-04T11:51:14;97520;;;9.1;56
68628;BME280;55611;48.602;9.490;2023-04-04T11:53:45;97520;;;9;56
68628;BME280;55611;48.602;9.490;2023-04-04T11:56:15;97520;;;8.7;56
68628;BME280;55611;48.602;9.490;2023-04-04T11:58:46;97520;;;8.7;56
68628;BME280;55611;48.602;9.490;2023-04-04T12:01:17;97520;;;8.8;56
68628;BME280;55611;48.602;9.490;2023-04-04T12:03:47;97510;;;9;56
68628;BME280;55611;48.602;9.490;2023-04-04T12:06:17;97510;;;9.2;56
68628;BME280;55611;48.602;9.490;2023-04-04T12:08:48;97510;;;9.3;56
68628;BME280;55611;48.602;9.490;2023-04-04T12:11:18;97500;;;9.3;56
68628;BME280;55611;48.602;9.490;2023-04-04T12:13:49;97500;;;9.4;56
68628;BME280;55611;48.602;9.490;2023-04-04T12:16:19;97510;;;9.4;56
68628;BME280;55611;48.602;9.490;2023-04-04T12:18:50;97510;;;9.2;56
68628;BME280;55611;48.602;9.490;2023-04-04T12:21:20;97520;;;9;56
68628;BME280;55611;48.602;9.490;2023-04-04T12:23:51;97500;;;9;56
68628;BME280;55611;48.602;9.490;2023-04-04T12:26:21;97510;;;9;56
68628;BME280;55611;48.602;9.490;2023-04-04T12:28:52;97500;;;9.1;56
68628;BME280;55611;48.602;9.490;2023-04-04T12:31:24;97500;;;9.1;56
68628;BME280;55611;48.602;9.490;2023-04-04T12:33:53;97490;;;9.2;56
68628;BME280;55611;48.602;9.490;2023-04-04T12:36:24;97490;;;9.2;56
68628;BME280;55611;48.602;9.490;2023-04-04T12:38:55;97510;;;9.2;56
68628;BME280;55611;48.602;9.490;2023-04-04T12:41:25;97500;;;9;56
68628;BME280;55611;48.602;9.490;2023-04-04T12:43:59;97490;;;9.1;56
68628;BME280;55611;48.602;9.490;2023-04-04T12:46:26;97480;;;9.3;56
68628;BME280;55611;48.602;9.490;2023-04-04T12:48:56;97480;;;9.3;56
68628;BME280;55611;48.602;9.490;2023-04-04T12:51:30;97480;;;9.6;55.5
68628;BME280;55611;48.602;9.490;2023-04-04T12:53:57;97480;;;9.6;55.5
68628;BME280;55611;48.602;9.490;2023-04-04T12:56:28;97470;;;9.5;55.5
68628;BME280;55611;48.602;9.490;2023-04-04T12:58:59;97470;;;9.5;55.5
68628;BME280;55611;48.602;9.490;2023-04-04T13:01:30;97490;;;9.7;55.5
68628;BME280;55611;48.602;9.490;2023-04-04T13:04:00;97470;;;9.7;55.5
68628;BME280;55611;48.602;9.490;2023-04-04T13:06:30;97470;;;9.8;55.5
68628;BME280;55611;48.602;9.490;2023-04-04T13:09:00;97470;;;9.8;55.5
68628;BME280;55611;48.602;9.490;2023-04-04T13:12:03;97470;;;9.7;55.5
68628;BME280;55611;48.602;9.490;2023-04-04T13:14:02;97470;;;9.6;55.5
68628;BME280;55611;48.602;9.490;2023-04-04T13:16:33;97460;;;9.6;55.5
68628;BME280;55611;48.602;9.490;2023-04-04T13:19:03;97460;;;9.6;55.5
68628;BME280;55611;48.602;9.490;2023-04-04T13:21:33;97460;;;9.7;55.5
68628;BME280;55611;48.602;9.490;2023-04-04T13:24:03;97460;;;9.6;55.5
68628;BME280;55611;48.602;9.490;2023-04-04T13:26:34;97460;;;9.6;55.5
68628;BME280;55611;48.602;9.490;2023-04-04T13:29:04;97460;;;9.7;55.5
68628;BME280;55611;48.602;9.490;2023-04-04T13:31:35;97450;;;9.6;55.5
68628;BME280;55611;48.602;9.490;2023-04-04T13:34:05;97450;;;9.6;55.5
68628;BME280;55611;48.602;9.490;2023-04-04T13:36:36;97440;;;9.8;55
68628;BME280;55611;48.602;9.490;2023-04-04T13:39:06;97450;;;9.9;55
68628;BME280;55611;48.602;9.490;2023-04-04T13:41:37;97440;;;10.1;55
68628;BME280;55611;48.602;9.490;2023-04-04T13:44:07;97440;;;10;55
68628;BME280;55611;48.602;9.490;2023-04-04T13:46:38;97440;;;10;55
68628;BME280;55611;48.602;9.490;2023-04-04T13:49:08;97430;;;9.8;55
68628;BME280;55611;48.602;9.490;2023-04-04T13:51:39;97440;;;9.8;55
68628;BME280;55611;48.602;9.490;2023-04-04T13:54:10;97430;;;9.8;55
68628;BME280;55611;48.602;9.490;2023-04-04T13:56:40;97440;;;9.9;55
68628;BME280;55611;48.602;9.490;2023-04-04T13:59:10;97440;;;10.1;55
68628;BME280;55611;48.602;9.490;2023-04-04T14:01:41;97430;;;10.1;55
68628;BME280;55611;48.602;9.490;2023-04-04T14:04:11;97430;;;10;55
68628;BME280;55611;48.602;9.490;2023-04-04T14:06:42;97430;;;9.8;54.5
68628;BME280;55611;48.602;9.490;2023-04-04T14:09:13;97430;;;9.7;54.5
68628;BME280;55611;48.602;9.490;2023-04-04T14:11:43;97430;;;9.8;54.5
68628;BME280;55611;48.602;9.490;2023-04-04T14:14:14;97430;;;9.9;54.5
68628;BME280;55611;48.602;9.490;2023-04-04T14:16:44;97420;;;10;54.5
68628;BME280;55611;48.602;9.490;2023-04-04T14:19:15;97420;;;10;54.5
68628;BME280;55611;48.602;9.490;2023-04-04T14:21:45;97430;;;10;54.5
68628;BME280;55611;48.602;9.490;2023-04-04T14:24:16;97430;;;9.9;55
68628;BME280;55611;48.602;9.490;2023-04-04T14:26:46;97420;;;9.9;54.5
68628;BME280;55611;48.602;9.490;2023-04-04T14:29:17;97420;;;9.9;54.5
68628;BME280;55611;48.602;9.490;2023-04-04T14:31:47;97430;;;10;54.5
68628;BME280;55611;48.602;9.490;2023-04-04T14:36:48;97420;;;10;55
68628;BME280;55611;48.602;9.490;2023-04-04T14:39:19;97410;;;9.9;54.5
68628;BME280;55611;48.602;9.490;2023-04-04T14:41:49;97410;;;10;54.5
68628;BME280;55611;48.602;9.490;2023-04-04T14:44:20;97410;;;10.1;54.5
68628;BME280;55611;48.602;9.490;2023-04-04T14:46:50;97410;;;10;54.5
68628;BME280;55611;48.602;9.490;2023-04-04T14:49:21;97410;;;10.1;54.5
68628;BME280;55611;48.602;9.490;2023-04-04T14:51:51;97410;;;10.1;54.5
68628;BME280;55611;48.602;9.490;2023-04-04T14:54:22;97410;;;10.1;54.5